createdAt,value
2018-07-21T00:03:20.988Z,6.40
2018-07-21T00:08:24.822Z,7.00
2018-07-21T00:13:28.700Z,7.30
2018-07-21T00:18:32.502Z,7.20
2018-07-21T00:23:36.384Z,7.80
2018-07-21T00:28:40.117Z,7.03
2018-07-21T00:33:43.634Z,7.00
2018-07-21T00:38:48.438Z,7.72
2018-07-21T00:43:55.395Z,7.45
2018-07-21T00:49:00.256Z,7.70
2018-07-21T00:54:05.115Z,7.40
2018-07-21T00:59:08.875Z,7.00
2018-07-21T01:04:12.600Z,7.50
2018-07-21T01:09:18.073Z,7.17
2018-07-21T01:14:22.013Z,7.03
2018-07-21T01:19:25.288Z,7.30
2018-07-21T01:24:28.616Z,7.72
2018-07-21T01:29:32.712Z,7.60
2018-07-21T01:34:36.049Z,8.70
2018-07-21T01:39:39.340Z,7.93
2018-07-21T01:44:42.545Z,7.10
2018-07-21T01:49:45.848Z,7.22
2018-07-21T01:54:49.209Z,7.08
2018-07-21T01:59:52.655Z,7.42
2018-07-21T02:04:56.051Z,7.60
2018-07-21T02:09:59.371Z,7.10
2018-07-21T02:15:02.635Z,7.30
2018-07-21T02:20:06.507Z,7.67
2018-07-21T02:25:09.792Z,7.53
2018-07-21T02:30:13.487Z,7.80
2018-07-21T02:35:16.795Z,7.90
2018-07-21T02:40:20.082Z,8.25
2018-07-21T02:45:23.150Z,8.08
2018-07-21T02:50:26.426Z,7.78
2018-07-21T02:55:30.004Z,8.48
2018-07-21T03:00:33.368Z,9.00
2018-07-21T03:05:36.632Z,8.93
2018-07-21T03:10:39.917Z,8.60
2018-07-21T03:15:43.166Z,8.03
2018-07-21T03:20:46.552Z,8.98
2018-07-21T03:25:49.774Z,8.20
2018-07-21T03:30:53.137Z,9.40
2018-07-21T03:35:56.328Z,9.60
2018-07-21T03:40:59.707Z,9.55
2018-07-21T03:46:02.957Z,8.75
2018-07-21T03:51:06.252Z,9.17
2018-07-21T03:56:09.534Z,8.70
2018-07-21T04:01:12.764Z,9.25
2018-07-21T04:06:16.019Z,8.50
2018-07-21T04:11:19.320Z,8.90
2018-07-21T04:16:22.615Z,8.93
2018-07-21T04:21:25.851Z,9.10
2018-07-21T04:26:29.118Z,8.40
2018-07-21T04:31:32.448Z,8.90
2018-07-21T04:36:35.714Z,8.90
2018-07-21T04:41:42.856Z,8.55
2018-07-21T04:46:47.110Z,9.28
2018-07-21T04:51:50.451Z,8.40
2018-07-21T04:56:53.769Z,8.33
2018-07-21T05:01:59.145Z,8.85
2018-07-21T05:07:02.460Z,7.90
2018-07-21T05:12:05.784Z,7.85
2018-07-21T05:17:08.995Z,8.08
2018-07-21T05:22:12.296Z,7.95
2018-07-21T05:27:15.653Z,7.50
2018-07-21T05:32:18.922Z,7.75
2018-07-21T05:37:22.171Z,7.30
2018-07-21T05:42:25.403Z,8.00
2018-07-21T05:47:28.592Z,7.20
2018-07-21T05:52:38.701Z,8.20
2018-07-21T05:57:41.994Z,7.50
2018-07-21T06:02:45.381Z,7.10
2018-07-21T06:07:48.638Z,7.30
2018-07-21T06:12:52.674Z,8.10
2018-07-21T06:17:56.050Z,7.97
2018-07-21T06:22:59.274Z,7.87
2018-07-21T06:28:02.600Z,7.80
2018-07-21T06:33:09.822Z,8.20
2018-07-21T06:38:13.096Z,8.00
2018-07-21T06:43:16.422Z,7.90
2018-07-21T06:48:19.682Z,6.90
2018-07-21T06:53:22.960Z,6.63
2018-07-21T06:58:26.244Z,6.50
2018-07-21T07:03:29.549Z,7.27
2018-07-21T07:08:32.757Z,6.73
2018-07-21T07:13:36.126Z,7.20
2018-07-21T07:18:39.148Z,7.53
2018-07-21T07:23:42.411Z,7.17
2018-07-21T07:28:45.629Z,6.65
2018-07-21T07:33:48.867Z,7.45
2018-07-21T07:38:52.153Z,7.28
2018-07-21T07:43:55.409Z,7.07
2018-07-21T07:48:58.794Z,7.50
2018-07-21T07:54:02.053Z,7.42
2018-07-21T07:59:05.407Z,7.47
2018-07-21T08:04:08.751Z,6.70
2018-07-21T08:09:12.944Z,7.33
2018-07-21T08:14:16.227Z,7.03
2018-07-21T08:19:19.443Z,8.00
2018-07-21T08:24:22.815Z,7.15
2018-07-21T08:29:27.842Z,7.50
2018-07-21T08:34:31.133Z,7.00
2018-07-21T08:39:34.389Z,6.40
2018-07-21T08:44:37.670Z,6.90
2018-07-21T08:49:40.923Z,6.53
2018-07-21T08:54:44.282Z,6.17
2018-07-21T08:59:47.575Z,5.70
2018-07-21T09:04:50.898Z,5.00
2018-07-21T09:09:54.502Z,5.60
2018-07-21T09:14:57.803Z,5.17
2018-07-21T09:20:02.073Z,5.00
2018-07-21T09:25:05.540Z,4.65
2018-07-21T09:30:08.901Z,4.50
2018-07-21T09:35:12.130Z,4.40
2018-07-21T09:40:16.934Z,4.40
2018-07-21T09:45:20.190Z,4.22
2018-07-21T09:50:23.924Z,4.92
2018-07-21T09:55:27.249Z,5.72
2018-07-21T10:00:35.910Z,6.72
2018-07-21T10:05:39.172Z,7.30
2018-07-21T10:10:42.565Z,8.30
2018-07-21T10:15:46.062Z,8.30
2018-07-21T10:20:49.269Z,8.90
2018-07-21T10:25:57.975Z,9.43
2018-07-21T10:31:01.340Z,9.63
2018-07-21T10:36:04.731Z,8.80
2018-07-21T10:41:08.683Z,9.55
2018-07-21T10:46:12.031Z,9.20
2018-07-21T10:51:16.225Z,9.13
2018-07-21T10:56:21.905Z,9.40
2018-07-21T11:01:24.892Z,8.48
2018-07-21T11:06:28.207Z,8.83
2018-07-21T11:11:31.615Z,9.50
2018-07-21T11:16:34.885Z,9.28
2018-07-21T11:21:40.901Z,9.70
2018-07-21T11:26:47.042Z,8.83
2018-07-21T11:31:50.416Z,9.05
2018-07-21T11:36:53.841Z,8.88
2018-07-21T11:41:57.165Z,9.00
2018-07-21T11:47:00.521Z,11.00
2018-07-21T11:52:03.788Z,10.80
2018-07-21T11:57:12.942Z,10.10
2018-07-21T12:02:16.284Z,10.30
2018-07-21T12:07:19.557Z,8.83
2018-07-21T12:12:22.873Z,9.23
2018-07-21T12:17:26.184Z,8.93
2018-07-21T12:22:29.445Z,8.40
2018-07-21T12:27:32.754Z,8.00
2018-07-21T12:32:36.151Z,7.93
2018-07-21T12:37:39.483Z,7.60
2018-07-21T12:42:42.889Z,8.20
2018-07-21T12:47:46.196Z,8.27
2018-07-21T12:52:49.479Z,8.00
2018-07-21T12:57:52.830Z,7.90
2018-07-21T13:02:56.079Z,8.13
2018-07-21T13:07:59.364Z,7.47
2018-07-21T13:13:02.587Z,8.27
2018-07-21T13:18:05.848Z,8.28
2018-07-21T13:23:09.190Z,8.03
2018-07-21T13:28:12.465Z,8.48
2018-07-21T13:33:15.800Z,7.72
2018-07-21T13:38:19.058Z,7.40
2018-07-21T13:43:22.447Z,11.38
2018-07-21T13:48:25.733Z,7.40
2018-07-21T13:53:29.466Z,7.03
2018-07-21T13:58:32.769Z,7.92
2018-07-21T14:03:36.854Z,8.30
2018-07-21T14:08:40.145Z,7.10
2018-07-21T14:13:43.388Z,6.30
2018-07-21T14:18:47.296Z,6.83
2018-07-21T14:23:50.597Z,6.30
2018-07-21T14:28:54.011Z,6.85
2018-07-21T14:33:57.439Z,6.37
2018-07-21T14:39:01.696Z,6.85
2018-07-21T14:44:05.004Z,6.30
2018-07-21T14:49:11.870Z,6.12
2018-07-21T14:54:16.030Z,6.15
2018-07-21T14:59:19.309Z,6.37
2018-07-21T15:04:22.614Z,6.90
2018-07-21T15:09:26.042Z,6.72
2018-07-21T15:14:29.422Z,7.47
2018-07-21T15:19:32.681Z,7.20
2018-07-21T15:24:36.701Z,7.20
2018-07-21T15:29:39.955Z,6.90
2018-07-21T15:34:43.236Z,7.95
2018-07-21T15:39:46.643Z,8.08
2018-07-21T15:44:49.896Z,8.50
2018-07-21T15:49:53.212Z,8.10
2018-07-21T15:54:57.816Z,8.07
2018-07-21T16:00:01.297Z,7.63
2018-07-21T16:05:04.596Z,7.25
2018-07-21T16:10:08.956Z,8.83
2018-07-21T16:15:12.309Z,8.43
2018-07-21T16:20:15.453Z,9.30
2018-07-21T16:25:19.377Z,8.48
2018-07-21T16:30:22.714Z,8.48
2018-07-21T16:35:26.910Z,7.77
2018-07-21T16:40:30.263Z,7.60
2018-07-21T16:45:33.525Z,7.55
2018-07-21T16:50:36.971Z,7.85
2018-07-21T16:55:40.278Z,7.22
2018-07-21T17:00:43.690Z,7.95
2018-07-21T17:05:47.115Z,7.87
2018-07-21T17:10:50.496Z,8.90
2018-07-21T17:15:53.871Z,7.58
2018-07-21T17:20:57.233Z,7.62
2018-07-21T17:26:01.652Z,7.15
2018-07-21T17:31:04.967Z,7.60
2018-07-21T17:36:08.299Z,8.43
2018-07-21T17:41:11.619Z,9.98
2018-07-21T17:46:14.899Z,11.30
2018-07-21T17:51:18.274Z,10.40
2018-07-21T17:56:21.644Z,9.50
2018-07-21T18:01:24.990Z,11.43
2018-07-21T18:06:28.748Z,11.65
2018-07-21T18:11:33.218Z,12.17
2018-07-21T18:16:38.105Z,13.07
2018-07-21T18:21:41.461Z,12.15
2018-07-21T18:26:44.747Z,12.58
2018-07-21T18:31:48.116Z,10.03
2018-07-21T18:36:51.459Z,10.95
2018-07-21T18:41:54.699Z,10.08
2018-07-21T18:46:58.028Z,10.40
2018-07-21T18:52:01.339Z,9.63
2018-07-21T18:57:04.681Z,9.58
2018-07-21T19:02:08.709Z,10.03
2018-07-21T19:07:12.065Z,10.10
2018-07-21T19:12:20.750Z,10.80
2018-07-21T19:17:24.130Z,11.00
2018-07-21T19:22:27.427Z,11.73
2018-07-21T19:27:30.897Z,10.55
2018-07-21T19:32:39.713Z,11.45
2018-07-21T19:37:49.192Z,11.40
2018-07-21T19:42:53.561Z,11.10
2018-07-21T19:47:56.946Z,10.60
2018-07-21T19:53:00.192Z,10.32
2018-07-21T19:58:03.639Z,11.30
2018-07-21T20:03:06.916Z,11.80
2018-07-21T20:08:11.167Z,12.05
2018-07-21T20:13:15.157Z,14.20
2018-07-21T20:18:22.420Z,15.53
2018-07-21T20:23:25.739Z,10.80
2018-07-21T20:28:29.067Z,12.40
2018-07-21T20:33:33.550Z,10.90
2018-07-21T20:38:36.862Z,12.50
2018-07-21T20:43:40.670Z,13.23
2018-07-21T20:48:43.965Z,12.55
2018-07-21T20:53:47.233Z,12.90
2018-07-21T20:58:50.573Z,13.37
2018-07-21T21:03:53.780Z,13.90
2018-07-21T21:08:57.134Z,14.30
2018-07-21T21:14:00.435Z,16.10
2018-07-21T21:19:03.987Z,14.83
2018-07-21T21:24:11.327Z,14.40
2018-07-21T21:29:14.777Z,13.48
2018-07-21T21:34:18.741Z,14.50
2018-07-21T21:39:27.458Z,14.43
2018-07-21T21:44:32.801Z,14.30
2018-07-21T21:49:36.151Z,13.50
2018-07-21T21:54:39.492Z,13.32
2018-07-21T21:59:47.647Z,13.98
2018-07-21T22:04:55.145Z,14.70
2018-07-21T22:10:00.531Z,13.00
2018-07-21T22:15:09.628Z,13.50
2018-07-21T22:20:13.058Z,13.70
2018-07-21T22:25:17.105Z,13.88
2018-07-21T22:30:24.159Z,13.95
2018-07-21T22:35:31.726Z,15.00
2018-07-21T22:40:36.508Z,14.13
2018-07-21T22:45:44.083Z,18.15
2018-07-21T22:50:49.504Z,17.70
2018-07-21T22:55:55.936Z,15.25
2018-07-21T23:00:59.460Z,14.17
2018-07-21T23:06:02.848Z,12.47
2018-07-21T23:11:06.500Z,13.20
2018-07-21T23:16:09.908Z,12.40
2018-07-21T23:21:17.430Z,11.73
2018-07-21T23:26:20.741Z,11.47
2018-07-21T23:31:25.205Z,12.00
2018-07-21T23:36:29.141Z,13.95
2018-07-21T23:41:32.421Z,14.98
2018-07-21T23:46:35.746Z,14.63
2018-07-21T23:51:39.038Z,15.30
2018-07-21T23:56:42.330Z,14.30
